sensor_id;sensor_type;location;lat;lon;timestamp;P1;durP1;ratioP1;P2;durP2;ratioP2
20124;SDS011;10223;50.862;4.360;2023-07-13T00:01:50;4.97;;;2.10;;
20124;SDS011;10223;50.862;4.360;2023-07-13T00:04:18;10.90;;;2.10;;
20124;SDS011;10223;50.862;4.360;2023-07-13T00:06:48;11.48;;;2.15;;
20124;SDS011;10223;50.862;4.360;2023-07-13T00:09:16;9.00;;;1.90;;
20124;SDS011;10223;50.862;4.360;2023-07-13T00:11:44;10.00;;;2.17;;
20124;SDS011;10223;50.862;4.360;2023-07-13T00:14:13;8.98;;;2.25;;
20124;SDS011;10223;50.862;4.360;2023-07-13T00:16:42;14.73;;;2.03;;
20124;SDS011;10223;50.862;4.360;2023-07-13T00:19:09;10.97;;;1.73;;
20124;SDS011;10223;50.862;4.360;2023-07-13T00:21:36;7.57;;;1.53;;
20124;SDS011;10223;50.862;4.360;2023-07-13T00:24:04;7.00;;;2.17;;
20124;SDS011;10223;50.862;4.360;2023-07-13T00:26:32;10.93;;;2.20;;
20124;SDS011;10223;50.862;4.360;2023-07-13T00:28:59;8.73;;;2.30;;
20124;SDS011;10223;50.862;4.360;2023-07-13T00:31:26;12.43;;;2.27;;
20124;SDS011;10223;50.862;4.360;2023-07-13T00:33:55;13.30;;;2.03;;
20124;SDS011;10223;50.862;4.360;2023-07-13T00:36:22;9.50;;;2.30;;
20124;SDS011;10223;50.862;4.360;2023-07-13T00:38:49;7.67;;;1.90;;
20124;SDS011;10223;50.862;4.360;2023-07-13T00:41:16;12.67;;;2.73;;
20124;SDS011;10223;50.862;4.360;2023-07-13T00:43:43;10.97;;;2.47;;
20124;SDS011;10223;50.862;4.360;2023-07-13T00:46:15;5.03;;;1.63;;
20124;SDS011;10223;50.862;4.360;2023-07-13T00:48:45;10.20;;;2.37;;
20124;SDS011;10223;50.862;4.360;2023-07-13T00:51:17;13.97;;;2.33;;
20124;SDS011;10223;50.862;4.360;2023-07-13T00:53:48;8.33;;;1.67;;
20124;SDS011;10223;50.862;4.360;2023-07-13T00:56:17;10.87;;;2.57;;
20124;SDS011;10223;50.862;4.360;2023-07-13T00:58:44;9.87;;;2.90;;
20124;SDS011;10223;50.862;4.360;2023-07-13T01:01:11;10.70;;;2.33;;
20124;SDS011;10223;50.862;4.360;2023-07-13T01:03:39;7.37;;;2.77;;
20124;SDS011;10223;50.862;4.360;2023-07-13T01:06:06;7.07;;;1.93;;
20124;SDS011;10223;50.862;4.360;2023-07-13T01:08:35;10.48;;;2.40;;
20124;SDS011;10223;50.862;4.360;2023-07-13T01:11:02;12.47;;;2.50;;
20124;SDS011;10223;50.862;4.360;2023-07-13T01:13:29;13.70;;;2.00;;
20124;SDS011;10223;50.862;4.360;2023-07-13T01:15:56;14.43;;;2.20;;
20124;SDS011;10223;50.862;4.360;2023-07-13T01:18:27;8.20;;;2.00;;
20124;SDS011;10223;50.862;4.360;2023-07-13T01:20:59;7.93;;;1.93;;
20124;SDS011;10223;50.862;4.360;2023-07-13T01:23:28;11.60;;;2.83;;
20124;SDS011;10223;50.862;4.360;2023-07-13T01:25:56;13.40;;;2.50;;
20124;SDS011;10223;50.862;4.360;2023-07-13T01:28:24;5.67;;;2.23;;
20124;SDS011;10223;50.862;4.360;2023-07-13T01:30:53;9.57;;;2.37;;
20124;SDS011;10223;50.862;4.360;2023-07-13T01:33:22;9.97;;;2.10;;
20124;SDS011;10223;50.862;4.360;2023-07-13T01:35:49;12.67;;;2.77;;
20124;SDS011;10223;50.862;4.360;2023-07-13T01:38:18;10.17;;;2.30;;
20124;SDS011;10223;50.862;4.360;2023-07-13T01:40:46;10.47;;;2.77;;
20124;SDS011;10223;50.862;4.360;2023-07-13T01:43:14;10.00;;;2.27;;
20124;SDS011;10223;50.862;4.360;2023-07-13T01:45:41;8.70;;;2.17;;
20124;SDS011;10223;50.862;4.360;2023-07-13T01:48:08;14.20;;;2.50;;
20124;SDS011;10223;50.862;4.360;2023-07-13T01:50:36;12.20;;;2.33;;
20124;SDS011;10223;50.862;4.360;2023-07-13T01:53:03;8.63;;;2.10;;
20124;SDS011;10223;50.862;4.360;2023-07-13T01:55:32;10.50;;;2.17;;
20124;SDS011;10223;50.862;4.360;2023-07-13T01:57:59;14.20;;;2.33;;
20124;SDS011;10223;50.862;4.360;2023-07-13T02:00:26;13.03;;;2.40;;
20124;SDS011;10223;50.862;4.360;2023-07-13T02:02:53;11.23;;;2.47;;
20124;SDS011;10223;50.862;4.360;2023-07-13T02:05:20;13.60;;;2.97;;
20124;SDS011;10223;50.862;4.360;2023-07-13T02:07:47;9.03;;;2.57;;
20124;SDS011;10223;50.862;4.360;2023-07-13T02:10:15;10.43;;;2.90;;
20124;SDS011;10223;50.862;4.360;2023-07-13T02:12:43;10.17;;;3.30;;
20124;SDS011;10223;50.862;4.360;2023-07-13T02:15:11;9.23;;;2.73;;
20124;SDS011;10223;50.862;4.360;2023-07-13T02:17:38;10.50;;;2.43;;
20124;SDS011;10223;50.862;4.360;2023-07-13T02:20:06;12.77;;;2.43;;
20124;SDS011;10223;50.862;4.360;2023-07-13T02:22:34;14.00;;;2.70;;
20124;SDS011;10223;50.862;4.360;2023-07-13T02:25:01;9.23;;;2.37;;
20124;SDS011;10223;50.862;4.360;2023-07-13T02:27:28;8.37;;;2.20;;
20124;SDS011;10223;50.862;4.360;2023-07-13T02:29:57;12.07;;;2.73;;
20124;SDS011;10223;50.862;4.360;2023-07-13T02:32:24;9.77;;;2.43;;
20124;SDS011;10223;50.862;4.360;2023-07-13T02:34:51;9.83;;;2.80;;
20124;SDS011;10223;50.862;4.360;2023-07-13T02:37:19;11.37;;;2.57;;
20124;SDS011;10223;50.862;4.360;2023-07-13T02:39:47;14.53;;;2.77;;
20124;SDS011;10223;50.862;4.360;2023-07-13T02:42:14;12.63;;;2.70;;
20124;SDS011;10223;50.862;4.360;2023-07-13T02:44:41;9.50;;;2.47;;
20124;SDS011;10223;50.862;4.360;2023-07-13T02:47:09;9.43;;;2.73;;
20124;SDS011;10223;50.862;4.360;2023-07-13T02:49:38;14.50;;;3.00;;
20124;SDS011;10223;50.862;4.360;2023-07-13T02:52:05;10.50;;;3.20;;
20124;SDS011;10223;50.862;4.360;2023-07-13T02:54:32;15.27;;;2.87;;
20124;SDS011;10223;50.862;4.360;2023-07-13T02:56:59;10.87;;;3.27;;
20124;SDS011;10223;50.862;4.360;2023-07-13T02:59:26;10.83;;;2.87;;
20124;SDS011;10223;50.862;4.360;2023-07-13T03:01:54;13.30;;;3.53;;
20124;SDS011;10223;50.862;4.360;2023-07-13T03:04:22;15.03;;;3.27;;
20124;SDS011;10223;50.862;4.360;2023-07-13T03:06:50;14.30;;;3.07;;
20124;SDS011;10223;50.862;4.360;2023-07-13T03:09:17;9.27;;;2.80;;
20124;SDS011;10223;50.862;4.360;2023-07-13T03:11:44;13.17;;;2.83;;
20124;SDS011;10223;50.862;4.360;2023-07-13T03:14:11;12.00;;;3.10;;
20124;SDS011;10223;50.862;4.360;2023-07-13T03:16:38;11.83;;;2.77;;
20124;SDS011;10223;50.862;4.360;2023-07-13T03:19:05;17.30;;;3.27;;
20124;SDS011;10223;50.862;4.360;2023-07-13T03:21:34;13.73;;;3.30;;
20124;SDS011;10223;50.862;4.360;2023-07-13T03:24:01;11.00;;;2.80;;
20124;SDS011;10223;50.862;4.360;2023-07-13T03:26:28;18.47;;;3.10;;
20124;SDS011;10223;50.862;4.360;2023-07-13T03:28:55;10.00;;;2.77;;
20124;SDS011;10223;50.862;4.360;2023-07-13T03:31:26;8.37;;;3.27;;
20124;SDS011;10223;50.862;4.360;2023-07-13T03:33:54;10.43;;;2.70;;
20124;SDS011;10223;50.862;4.360;2023-07-13T03:36:23;12.60;;;3.80;;
20124;SDS011;10223;50.862;4.360;2023-07-13T03:38:54;12.87;;;3.03;;
20124;SDS011;10223;50.862;4.360;2023-07-13T03:41:22;11.67;;;3.27;;
20124;SDS011;10223;50.862;4.360;2023-07-13T03:43:50;16.67;;;3.80;;
20124;SDS011;10223;50.862;4.360;2023-07-13T03:46:18;8.77;;;2.90;;
20124;SDS011;10223;50.862;4.360;2023-07-13T03:48:46;14.20;;;3.30;;
20124;SDS011;10223;50.862;4.360;2023-07-13T03:51:15;11.77;;;3.77;;
20124;SDS011;10223;50.862;4.360;2023-07-13T03:53:43;7.83;;;3.03;;
20124;SDS011;10223;50.862;4.360;2023-07-13T03:56:13;18.23;;;3.33;;
20124;SDS011;10223;50.862;4.360;2023-07-13T03:58:41;14.47;;;3.30;;
20124;SDS011;10223;50.862;4.360;2023-07-13T04:01:10;19.23;;;3.17;;
20124;SDS011;10223;50.862;4.360;2023-07-13T04:03:38;16.23;;;3.83;;
20124;SDS011;10223;50.862;4.360;2023-07-13T04:06:07;12.20;;;3.10;;
20124;SDS011;10223;50.862;4.360;2023-07-13T04:08:40;15.77;;;3.73;;
20124;SDS011;10223;50.862;4.360;2023-07-13T04:11:08;13.23;;;3.10;;
20124;SDS011;10223;50.862;4.360;2023-07-13T04:13:37;15.80;;;3.50;;
20124;SDS011;10223;50.862;4.360;2023-07-13T04:16:04;14.83;;;3.43;;
20124;SDS011;10223;50.862;4.360;2023-07-13T04:18:31;14.67;;;3.63;;
20124;SDS011;10223;50.862;4.360;2023-07-13T04:20:58;21.93;;;4.03;;
20124;SDS011;10223;50.862;4.360;2023-07-13T04:23:25;13.37;;;3.40;;
20124;SDS011;10223;50.862;4.360;2023-07-13T04:25:53;10.80;;;3.17;;
20124;SDS011;10223;50.862;4.360;2023-07-13T04:28:20;11.77;;;3.20;;
20124;SDS011;10223;50.862;4.360;2023-07-13T04:30:49;14.20;;;3.83;;
20124;SDS011;10223;50.862;4.360;2023-07-13T04:33:17;14.27;;;3.57;;
20124;SDS011;10223;50.862;4.360;2023-07-13T04:35:47;12.77;;;3.70;;
20124;SDS011;10223;50.862;4.360;2023-07-13T04:38:15;21.30;;;3.93;;
20124;SDS011;10223;50.862;4.360;2023-07-13T04:40:42;17.47;;;3.80;;
20124;SDS011;10223;50.862;4.360;2023-07-13T04:43:11;13.13;;;3.70;;
20124;SDS011;10223;50.862;4.360;2023-07-13T04:45:38;16.27;;;3.23;;
20124;SDS011;10223;50.862;4.360;2023-07-13T04:48:06;14.37;;;3.60;;
20124;SDS011;10223;50.862;4.360;2023-07-13T04:50:35;13.03;;;3.50;;
20124;SDS011;10223;50.862;4.360;2023-07-13T04:53:03;16.97;;;2.97;;
20124;SDS011;10223;50.862;4.360;2023-07-13T04:55:30;13.30;;;3.17;;
20124;SDS011;10223;50.862;4.360;2023-07-13T04:57:58;13.23;;;3.70;;
20124;SDS011;10223;50.862;4.360;2023-07-13T05:00:25;12.27;;;3.53;;
20124;SDS011;10223;50.862;4.360;2023-07-13T05:02:53;17.53;;;3.90;;
20124;SDS011;10223;50.862;4.360;2023-07-13T05:05:24;15.57;;;4.13;;
20124;SDS011;10223;50.862;4.360;2023-07-13T05:07:51;22.27;;;3.63;;
20124;SDS011;10223;50.862;4.360;2023-07-13T05:10:19;16.33;;;3.27;;
20124;SDS011;10223;50.862;4.360;2023-07-13T05:12:46;11.70;;;3.50;;
20124;SDS011;10223;50.862;4.360;2023-07-13T05:15:13;17.70;;;3.73;;
20124;SDS011;10223;50.862;4.360;2023-07-13T05:17:40;9.83;;;3.20;;
20124;SDS011;10223;50.862;4.360;2023-07-13T05:20:08;16.90;;;4.13;;
20124;SDS011;10223;50.862;4.360;2023-07-13T05:22:37;10.57;;;3.77;;
20124;SDS011;10223;50.862;4.360;2023-07-13T05:25:05;15.50;;;3.53;;
20124;SDS011;10223;50.862;4.360;2023-07-13T05:27:33;10.80;;;4.23;;
20124;SDS011;10223;50.862;4.360;2023-07-13T05:30:00;21.57;;;4.10;;
20124;SDS011;10223;50.862;4.360;2023-07-13T05:32:28;11.20;;;3.30;;
20124;SDS011;10223;50.862;4.360;2023-07-13T05:34:55;24.23;;;4.10;;
20124;SDS011;10223;50.862;4.360;2023-07-13T05:37:22;19.40;;;3.73;;
20124;SDS011;10223;50.862;4.360;2023-07-13T05:39:50;16.93;;;3.70;;
20124;SDS011;10223;50.862;4.360;2023-07-13T05:42:17;22.10;;;3.83;;
20124;SDS011;10223;50.862;4.360;2023-07-13T05:44:44;14.53;;;4.00;;
20124;SDS011;10223;50.862;4.360;2023-07-13T05:47:11;18.47;;;3.70;;
20124;SDS011;10223;50.862;4.360;2023-07-13T05:49:40;21.17;;;4.40;;
20124;SDS011;10223;50.862;4.360;2023-07-13T05:52:07;19.43;;;4.03;;
20124;SDS011;10223;50.862;4.360;2023-07-13T05:54:34;12.97;;;3.80;;
20124;SDS011;10223;50.862;4.360;2023-07-13T05:57:03;19.03;;;4.50;;
20124;SDS011;10223;50.862;4.360;2023-07-13T05:59:30;13.90;;;3.67;;
20124;SDS011;10223;50.862;4.360;2023-07-13T06:01:57;18.80;;;3.70;;
20124;SDS011;10223;50.862;4.360;2023-07-13T06:04:24;17.73;;;3.97;;
20124;SDS011;10223;50.862;4.360;2023-07-13T06:06:51;15.83;;;3.97;;
20124;SDS011;10223;50.862;4.360;2023-07-13T06:09:19;16.67;;;4.03;;
20124;SDS011;10223;50.862;4.360;2023-07-13T06:11:46;15.00;;;4.43;;
20124;SDS011;10223;50.862;4.360;2023-07-13T06:14:15;10.40;;;3.50;;
20124;SDS011;10223;50.862;4.360;2023-07-13T06:16:42;16.60;;;4.20;;
20124;SDS011;10223;50.862;4.360;2023-07-13T06:19:09;12.20;;;3.30;;
20124;SDS011;10223;50.862;4.360;2023-07-13T06:21:36;10.93;;;3.90;;
20124;SDS011;10223;50.862;4.360;2023-07-13T06:24:03;16.13;;;3.70;;
20124;SDS011;10223;50.862;4.360;2023-07-13T06:26:30;20.70;;;4.30;;
20124;SDS011;10223;50.862;4.360;2023-07-13T06:28:58;27.10;;;4.43;;
20124;SDS011;10223;50.862;4.360;2023-07-13T06:31:26;12.65;;;3.00;;
20124;SDS011;10223;50.862;4.360;2023-07-13T06:33:53;21.92;;;3.95;;
20124;SDS011;10223;50.862;4.360;2023-07-13T06:36:20;14.77;;;3.40;;
20124;SDS011;10223;50.862;4.360;2023-07-13T06:38:47;15.05;;;3.65;;
20124;SDS011;10223;50.862;4.360;2023-07-13T06:41:14;17.47;;;4.40;;
20124;SDS011;10223;50.862;4.360;2023-07-13T06:43:42;24.43;;;3.90;;
20124;SDS011;10223;50.862;4.360;2023-07-13T06:46:09;9.83;;;3.83;;
20124;SDS011;10223;50.862;4.360;2023-07-13T06:48:38;13.00;;;3.50;;
20124;SDS011;10223;50.862;4.360;2023-07-13T06:51:05;16.93;;;4.33;;
20124;SDS011;10223;50.862;4.360;2023-07-13T06:53:32;12.60;;;3.33;;
20124;SDS011;10223;50.862;4.360;2023-07-13T06:56:00;15.35;;;3.72;;
20124;SDS011;10223;50.862;4.360;2023-07-13T06:58:28;14.10;;;3.60;;
20124;SDS011;10223;50.862;4.360;2023-07-13T07:00:55;11.23;;;3.47;;
20124;SDS011;10223;50.862;4.360;2023-07-13T07:03:22;14.50;;;3.40;;
20124;SDS011;10223;50.862;4.360;2023-07-13T07:05:50;15.55;;;4.20;;
20124;SDS011;10223;50.862;4.360;2023-07-13T07:08:18;12.40;;;4.27;;
20124;SDS011;10223;50.862;4.360;2023-07-13T07:10:45;16.77;;;3.70;;
20124;SDS011;10223;50.862;4.360;2023-07-13T07:13:12;9.37;;;3.70;;
20124;SDS011;10223;50.862;4.360;2023-07-13T07:15:39;17.45;;;3.33;;
20124;SDS011;10223;50.862;4.360;2023-07-13T07:18:06;12.40;;;3.00;;
20124;SDS011;10223;50.862;4.360;2023-07-13T07:20:33;16.60;;;4.10;;
20124;SDS011;10223;50.862;4.360;2023-07-13T07:23:02;14.57;;;3.83;;
20124;SDS011;10223;50.862;4.360;2023-07-13T07:25:29;18.45;;;4.25;;
20124;SDS011;10223;50.862;4.360;2023-07-13T07:27:57;17.95;;;4.10;;
20124;SDS011;10223;50.862;4.360;2023-07-13T07:30:25;13.70;;;3.72;;
20124;SDS011;10223;50.862;4.360;2023-07-13T07:32:52;12.20;;;3.45;;
20124;SDS011;10223;50.862;4.360;2023-07-13T07:35:19;12.82;;;3.72;;
20124;SDS011;10223;50.862;4.360;2023-07-13T07:37:46;63.97;;;7.57;;
20124;SDS011;10223;50.862;4.360;2023-07-13T07:40:14;8.85;;;3.40;;
20124;SDS011;10223;50.862;4.360;2023-07-13T07:42:42;77.18;;;9.93;;
20124;SDS011;10223;50.862;4.360;2023-07-13T07:45:09;18.73;;;3.80;;
20124;SDS011;10223;50.862;4.360;2023-07-13T07:47:37;20.50;;;3.47;;
20124;SDS011;10223;50.862;4.360;2023-07-13T07:50:04;14.98;;;3.78;;
20124;SDS011;10223;50.862;4.360;2023-07-13T07:52:32;17.05;;;3.33;;
20124;SDS011;10223;50.862;4.360;2023-07-13T07:54:59;16.83;;;3.22;;
20124;SDS011;10223;50.862;4.360;2023-07-13T07:57:27;12.30;;;3.35;;
20124;SDS011;10223;50.862;4.360;2023-07-13T07:59:54;11.48;;;3.53;;
20124;SDS011;10223;50.862;4.360;2023-07-13T08:02:21;13.52;;;3.70;;
20124;SDS011;10223;50.862;4.360;2023-07-13T08:04:48;15.93;;;3.80;;
20124;SDS011;10223;50.862;4.360;2023-07-13T08:07:16;8.80;;;3.30;;
20124;SDS011;10223;50.862;4.360;2023-07-13T08:09:43;7.85;;;3.25;;
20124;SDS011;10223;50.862;4.360;2023-07-13T08:12:10;23.85;;;4.78;;
20124;SDS011;10223;50.862;4.360;2023-07-13T08:14:38;14.77;;;3.58;;
20124;SDS011;10223;50.862;4.360;2023-07-13T08:17:05;12.75;;;2.90;;
20124;SDS011;10223;50.862;4.360;2023-07-13T08:19:32;9.55;;;3.10;;
20124;SDS011;10223;50.862;4.360;2023-07-13T08:21:59;14.70;;;3.58;;
20124;SDS011;10223;50.862;4.360;2023-07-13T08:24:26;14.43;;;3.15;;
20124;SDS011;10223;50.862;4.360;2023-07-13T08:26:53;11.40;;;2.90;;
20124;SDS011;10223;50.862;4.360;2023-07-13T08:29:20;12.93;;;2.92;;
20124;SDS011;10223;50.862;4.360;2023-07-13T08:31:49;9.18;;;2.90;;
20124;SDS011;10223;50.862;4.360;2023-07-13T08:34:16;8.80;;;2.88;;
20124;SDS011;10223;50.862;4.360;2023-07-13T08:36:43;11.95;;;3.10;;
20124;SDS011;10223;50.862;4.360;2023-07-13T08:39:10;7.65;;;2.72;;
20124;SDS011;10223;50.862;4.360;2023-07-13T08:41:38;13.65;;;3.22;;
20124;SDS011;10223;50.862;4.360;2023-07-13T08:44:06;16.00;;;3.58;;
20124;SDS011;10223;50.862;4.360;2023-07-13T08:46:54;13.77;;;3.20;;
20124;SDS011;10223;50.862;4.360;2023-07-13T08:49:23;12.20;;;3.22;;
20124;SDS011;10223;50.862;4.360;2023-07-13T08:51:53;8.82;;;3.03;;
20124;SDS011;10223;50.862;4.360;2023-07-13T08:54:24;11.50;;;2.75;;
20124;SDS011;10223;50.862;4.360;2023-07-13T08:56:55;13.13;;;3.38;;
20124;SDS011;10223;50.862;4.360;2023-07-13T08:59:26;8.55;;;2.10;;
20124;SDS011;10223;50.862;4.360;2023-07-13T09:04:54;12.80;;;2.58;;
20124;SDS011;10223;50.862;4.360;2023-07-13T09:07:29;11.48;;;2.80;;
20124;SDS011;10223;50.862;4.360;2023-07-13T09:10:11;9.02;;;2.90;;
20124;SDS011;10223;50.862;4.360;2023-07-13T09:12:45;7.28;;;2.60;;
20124;SDS011;10223;50.862;4.360;2023-07-13T09:15:25;8.27;;;2.50;;
20124;SDS011;10223;50.862;4.360;2023-07-13T09:17:58;7.70;;;2.70;;
20124;SDS011;10223;50.862;4.360;2023-07-13T09:20:31;8.77;;;2.63;;
20124;SDS011;10223;50.862;4.360;2023-07-13T09:23:01;10.85;;;3.25;;
20124;SDS011;10223;50.862;4.360;2023-07-13T09:25:32;10.93;;;2.58;;
20124;SDS011;10223;50.862;4.360;2023-07-13T09:28:02;8.10;;;2.80;;
20124;SDS011;10223;50.862;4.360;2023-07-13T09:30:38;9.40;;;2.35;;
20124;SDS011;10223;50.862;4.360;2023-07-13T09:33:12;8.13;;;2.40;;
20124;SDS011;10223;50.862;4.360;2023-07-13T09:35:39;12.60;;;3.08;;
20124;SDS011;10223;50.862;4.360;2023-07-13T09:38:11;8.38;;;2.80;;
20124;SDS011;10223;50.862;4.360;2023-07-13T09:40:42;8.25;;;2.92;;
20124;SDS011;10223;50.862;4.360;2023-07-13T09:43:16;10.30;;;2.80;;
20124;SDS011;10223;50.862;4.360;2023-07-13T09:45:45;6.88;;;2.70;;
20124;SDS011;10223;50.862;4.360;2023-07-13T09:48:15;9.52;;;2.63;;
20124;SDS011;10223;50.862;4.360;2023-07-13T09:50:44;9.13;;;2.92;;
20124;SDS011;10223;50.862;4.360;2023-07-13T09:53:12;9.00;;;2.40;;
20124;SDS011;10223;50.862;4.360;2023-07-13T09:55:40;13.82;;;2.28;;
20124;SDS011;10223;50.862;4.360;2023-07-13T09:58:09;11.52;;;2.40;;
20124;SDS011;10223;50.862;4.360;2023-07-13T10:00:40;9.15;;;2.67;;
20124;SDS011;10223;50.862;4.360;2023-07-13T10:03:20;12.57;;;2.70;;
20124;SDS011;10223;50.862;4.360;2023-07-13T10:05:49;14.30;;;2.35;;
20124;SDS011;10223;50.862;4.360;2023-07-13T10:08:18;16.25;;;2.40;;
20124;SDS011;10223;50.862;4.360;2023-07-13T10:10:51;7.97;;;2.20;;
20124;SDS011;10223;50.862;4.360;2023-07-13T10:13:24;5.55;;;2.38;;
20124;SDS011;10223;50.862;4.360;2023-07-13T10:15:53;10.10;;;2.17;;
20124;SDS011;10223;50.862;4.360;2023-07-13T10:18:23;6.50;;;2.40;;
20124;SDS011;10223;50.862;4.360;2023-07-13T10:20:53;13.57;;;2.65;;
20124;SDS011;10223;50.862;4.360;2023-07-13T10:23:25;8.15;;;2.30;;
20124;SDS011;10223;50.862;4.360;2023-07-13T10:25:59;6.70;;;2.15;;
20124;SDS011;10223;50.862;4.360;2023-07-13T10:28:28;7.47;;;2.38;;
20124;SDS011;10223;50.862;4.360;2023-07-13T10:30:58;6.18;;;2.15;;
20124;SDS011;10223;50.862;4.360;2023-07-13T10:33:29;6.80;;;2.05;;
20124;SDS011;10223;50.862;4.360;2023-07-13T10:35:57;7.55;;;1.98;;
20124;SDS011;10223;50.862;4.360;2023-07-13T10:38:30;8.88;;;2.47;;
20124;SDS011;10223;50.862;4.360;2023-07-13T10:41:03;7.70;;;2.40;;
20124;SDS011;10223;50.862;4.360;2023-07-13T10:43:33;6.90;;;2.13;;
20124;SDS011;10223;50.862;4.360;2023-07-13T10:46:03;7.15;;;2.33;;
20124;SDS011;10223;50.862;4.360;2023-07-13T10:48:36;9.82;;;2.75;;
20124;SDS011;10223;50.862;4.360;2023-07-13T10:51:05;9.00;;;3.53;;
20124;SDS011;10223;50.862;4.360;2023-07-13T10:53:34;22.67;;;3.50;;
20124;SDS011;10223;50.862;4.360;2023-07-13T10:56:03;7.85;;;2.58;;
20124;SDS011;10223;50.862;4.360;2023-07-13T10:58:36;8.75;;;2.67;;
20124;SDS011;10223;50.862;4.360;2023-07-13T11:01:08;12.73;;;2.58;;
20124;SDS011;10223;50.862;4.360;2023-07-13T11:03:47;11.77;;;2.95;;
20124;SDS011;10223;50.862;4.360;2023-07-13T11:06:17;9.73;;;2.75;;
20124;SDS011;10223;50.862;4.360;2023-07-13T11:09:03;9.57;;;2.20;;
20124;SDS011;10223;50.862;4.360;2023-07-13T11:11:45;7.72;;;2.22;;
20124;SDS011;10223;50.862;4.360;2023-07-13T11:16:56;23.25;;;3.30;;
20124;SDS011;10223;50.862;4.360;2023-07-13T11:22:21;4.95;;;2.08;;
20124;SDS011;10223;50.862;4.360;2023-07-13T11:24:51;6.15;;;2.10;;
20124;SDS011;10223;50.862;4.360;2023-07-13T11:27:33;10.80;;;1.85;;
20124;SDS011;10223;50.862;4.360;2023-07-13T11:30:07;5.47;;;1.67;;
20124;SDS011;10223;50.862;4.360;2023-07-13T11:32:49;4.28;;;1.83;;
20124;SDS011;10223;50.862;4.360;2023-07-13T11:35:21;5.95;;;1.98;;
20124;SDS011;10223;50.862;4.360;2023-07-13T11:37:52;9.02;;;1.90;;
20124;SDS011;10223;50.862;4.360;2023-07-13T11:40:19;10.15;;;2.65;;
20124;SDS011;10223;50.862;4.360;2023-07-13T11:42:52;5.82;;;1.90;;
20124;SDS011;10223;50.862;4.360;2023-07-13T11:45:19;9.10;;;2.15;;
20124;SDS011;10223;50.862;4.360;2023-07-13T11:47:48;7.63;;;2.00;;
20124;SDS011;10223;50.862;4.360;2023-07-13T11:50:17;7.10;;;1.92;;
20124;SDS011;10223;50.862;4.360;2023-07-13T11:52:47;10.55;;;2.00;;
20124;SDS011;10223;50.862;4.360;2023-07-13T11:55:17;7.07;;;2.05;;
20124;SDS011;10223;50.862;4.360;2023-07-13T11:57:49;9.77;;;2.13;;
20124;SDS011;10223;50.862;4.360;2023-07-13T12:00:18;7.70;;;2.10;;
20124;SDS011;10223;50.862;4.360;2023-07-13T12:02:49;6.43;;;2.30;;
20124;SDS011;10223;50.862;4.360;2023-07-13T12:05:20;7.57;;;1.98;;
20124;SDS011;10223;50.862;4.360;2023-07-13T12:07:48;8.95;;;1.80;;
20124;SDS011;10223;50.862;4.360;2023-07-13T12:10:17;7.05;;;2.03;;
20124;SDS011;10223;50.862;4.360;2023-07-13T12:12:47;9.20;;;2.97;;
20124;SDS011;10223;50.862;4.360;2023-07-13T12:15:16;7.97;;;2.58;;
20124;SDS011;10223;50.862;4.360;2023-07-13T12:17:43;5.05;;;1.75;;
20124;SDS011;10223;50.862;4.360;2023-07-13T12:20:17;7.25;;;2.20;;
20124;SDS011;10223;50.862;4.360;2023-07-13T12:22:49;10.75;;;2.53;;
20124;SDS011;10223;50.862;4.360;2023-07-13T12:25:17;6.55;;;2.28;;
20124;SDS011;10223;50.862;4.360;2023-07-13T12:27:48;5.90;;;1.20;;
20124;SDS011;10223;50.862;4.360;2023-07-13T12:30:24;1.50;;;0.80;;
20124;SDS011;10223;50.862;4.360;2023-07-13T12:32:58;2.97;;;0.75;;
20124;SDS011;10223;50.862;4.360;2023-07-13T12:35:28;3.90;;;2.00;;
20124;SDS011;10223;50.862;4.360;2023-07-13T12:38:00;5.53;;;1.45;;
20124;SDS011;10223;50.862;4.360;2023-07-13T12:40:30;6.40;;;1.60;;
20124;SDS011;10223;50.862;4.360;2023-07-13T12:43:00;4.22;;;1.80;;
20124;SDS011;10223;50.862;4.360;2023-07-13T12:45:29;5.40;;;1.70;;
20124;SDS011;10223;50.862;4.360;2023-07-13T12:47:57;4.03;;;1.70;;
20124;SDS011;10223;50.862;4.360;2023-07-13T12:50:34;5.95;;;2.05;;
20124;SDS011;10223;50.862;4.360;2023-07-13T12:53:04;6.90;;;2.05;;
20124;SDS011;10223;50.862;4.360;2023-07-13T12:55:40;4.60;;;2.28;;
20124;SDS011;10223;50.862;4.360;2023-07-13T12:58:17;6.38;;;2.33;;
20124;SDS011;10223;50.862;4.360;2023-07-13T13:00:53;5.75;;;2.40;;
20124;SDS011;10223;50.862;4.360;2023-07-13T13:03:24;6.13;;;2.30;;
20124;SDS011;10223;50.862;4.360;2023-07-13T13:06:00;8.85;;;2.33;;
20124;SDS011;10223;50.862;4.360;2023-07-13T13:08:29;4.05;;;1.85;;
20124;SDS011;10223;50.862;4.360;2023-07-13T13:10:57;7.35;;;1.83;;
20124;SDS011;10223;50.862;4.360;2023-07-13T13:13:24;5.63;;;3.15;;
20124;SDS011;10223;50.862;4.360;2023-07-13T13:15:52;3.80;;;1.92;;
20124;SDS011;10223;50.862;4.360;2023-07-13T13:18:19;3.65;;;1.73;;
20124;SDS011;10223;50.862;4.360;2023-07-13T13:20:49;4.38;;;1.77;;
20124;SDS011;10223;50.862;4.360;2023-07-13T13:23:19;3.53;;;1.85;;
20124;SDS011;10223;50.862;4.360;2023-07-13T13:25:49;6.20;;;2.30;;
20124;SDS011;10223;50.862;4.360;2023-07-13T13:28:17;3.45;;;1.70;;
20124;SDS011;10223;50.862;4.360;2023-07-13T13:30:46;5.93;;;2.55;;
20124;SDS011;10223;50.862;4.360;2023-07-13T13:33:17;6.07;;;2.67;;
20124;SDS011;10223;50.862;4.360;2023-07-13T13:35:45;5.95;;;2.60;;
20124;SDS011;10223;50.862;4.360;2023-07-13T13:38:13;6.05;;;2.85;;
20124;SDS011;10223;50.862;4.360;2023-07-13T13:40:42;4.90;;;1.77;;
20124;SDS011;10223;50.862;4.360;2023-07-13T13:43:14;6.18;;;1.67;;
20124;SDS011;10223;50.862;4.360;2023-07-13T13:45:42;2.95;;;1.42;;
20124;SDS011;10223;50.862;4.360;2023-07-13T13:48:15;4.68;;;1.55;;
20124;SDS011;10223;50.862;4.360;2023-07-13T13:50:43;3.78;;;1.80;;
20124;SDS011;10223;50.862;4.360;2023-07-13T13:53:11;4.80;;;1.73;;
20124;SDS011;10223;50.862;4.360;2023-07-13T13:55:39;8.95;;;1.67;;
20124;SDS011;10223;50.862;4.360;2023-07-13T13:58:08;4.85;;;1.85;;
20124;SDS011;10223;50.862;4.360;2023-07-13T14:00:36;5.43;;;1.52;;
20124;SDS011;10223;50.862;4.360;2023-07-13T14:03:03;4.60;;;1.92;;
20124;SDS011;10223;50.862;4.360;2023-07-13T14:05:32;4.03;;;1.73;;
20124;SDS011;10223;50.862;4.360;2023-07-13T14:07:59;4.68;;;1.70;;
20124;SDS011;10223;50.862;4.360;2023-07-13T14:10:27;5.88;;;1.77;;
20124;SDS011;10223;50.862;4.360;2023-07-13T14:12:55;9.65;;;1.77;;
20124;SDS011;10223;50.862;4.360;2023-07-13T14:15:25;4.85;;;1.63;;
20124;SDS011;10223;50.862;4.360;2023-07-13T14:17:56;5.50;;;1.77;;
20124;SDS011;10223;50.862;4.360;2023-07-13T14:20:23;5.63;;;1.42;;
20124;SDS011;10223;50.862;4.360;2023-07-13T14:22:51;4.68;;;1.40;;
20124;SDS011;10223;50.862;4.360;2023-07-13T14:25:21;6.60;;;1.98;;
20124;SDS011;10223;50.862;4.360;2023-07-13T14:27:49;5.20;;;1.80;;
20124;SDS011;10223;50.862;4.360;2023-07-13T14:30:21;2.95;;;1.58;;
20124;SDS011;10223;50.862;4.360;2023-07-13T14:32:50;4.70;;;2.00;;
20124;SDS011;10223;50.862;4.360;2023-07-13T14:35:20;3.08;;;1.55;;
20124;SDS011;10223;50.862;4.360;2023-07-13T14:37:49;4.43;;;1.45;;
20124;SDS011;10223;50.862;4.360;2023-07-13T14:40:17;2.85;;;1.23;;
20124;SDS011;10223;50.862;4.360;2023-07-13T14:42:49;3.80;;;1.40;;
20124;SDS011;10223;50.862;4.360;2023-07-13T14:45:17;4.80;;;1.45;;
20124;SDS011;10223;50.862;4.360;2023-07-13T14:47:45;4.82;;;1.60;;
20124;SDS011;10223;50.862;4.360;2023-07-13T14:50:15;5.25;;;1.60;;
20124;SDS011;10223;50.862;4.360;2023-07-13T14:52:45;5.82;;;1.50;;
20124;SDS011;10223;50.862;4.360;2023-07-13T14:55:14;11.13;;;1.73;;
20124;SDS011;10223;50.862;4.360;2023-07-13T14:57:43;2.85;;;1.40;;
20124;SDS011;10223;50.862;4.360;2023-07-13T15:00:15;3.03;;;1.50;;